Time;durP1;ratioP1;P1;durP2;ratioP2;P2;SDS_P1;SDS_P2;PMS_P1;PMS_P2;Temp;Humidity;BMP_temperature;BMP_pressure;BME280_temperature;BME280_humidity;BME280_pressure;Samples;Min_cycle;Max_cycle;Signal;HPM_P1;HPM_P2
2023/06/16 00:09:50;;;;;;;7.75;6.15;;;10.00;99.90;;;;;;21049556;28;20101;-51
2023/06/16 00:19:53;;;;;;;10.25;4.93;;;9.90;99.90;;;;;;21069214;28;20032;-51
2023/06/16 00:29:55;;;;;;;6.55;5.72;;;9.70;99.90;;;;;;21068219;28;20168;-44
2023/06/16 00:39:57;;;;;;;7.10;6.05;;;9.80;99.90;;;;;;21070079;28;20044;-43
2023/06/16 00:49:59;;;;;;;6.55;5.53;;;9.60;99.90;;;;;;21066619;28;20065;-42
2023/06/16 01:00:01;;;;;;;6.00;5.13;;;9.60;99.90;;;;;;21063379;28;20032;-45
2023/06/16 01:10:40;;;;;;;5.55;4.30;;;9.60;99.90;;;;;;21080554;28;20040;-47
2023/06/16 01:20:57;;;;;;;5.75;4.88;;;9.50;99.90;;;;;;21063175;28;20035;-48
2023/06/16 01:31:02;;;;;;;7.85;5.80;;;9.30;99.90;;;;;;21043786;28;20024;-46
2023/06/16 01:41:04;;;;;;;6.72;5.15;;;8.90;99.90;;;;;;21059858;28;20090;-45
2023/06/16 01:51:07;;;;;;;11.40;6.72;;;8.80;99.90;;;;;;21027468;28;20640;-45
2023/06/16 02:01:14;;;;;;;8.10;6.63;;;8.70;99.90;;;;;;21062343;28;20097;-51
2023/06/16 02:11:15;;;;;;;7.43;5.97;;;8.60;99.90;;;;;;21061936;28;20032;-46
2023/06/16 02:21:17;;;;;;;6.50;4.97;;;8.80;99.90;;;;;;21061511;28;20034;-47
2023/06/16 02:31:19;;;;;;;6.45;4.95;;;8.80;99.90;;;;;;21057393;28;20032;-45
2023/06/16 02:41:21;;;;;;;6.40;5.00;;;8.70;99.90;;;;;;21060660;28;20036;-49
2023/06/16 02:51:22;;;;;;;9.45;7.05;;;8.80;99.90;;;;;;21042703;28;20040;-45
2023/06/16 03:01:28;;;;;;;7.63;6.32;;;8.60;99.90;;;;;;21073837;28;20036;-44
2023/06/16 03:11:45;;;;;;;10.60;6.22;;;8.50;99.90;;;;;;21039624;28;20043;-45
2023/06/16 03:21:50;;;;;;;8.63;6.95;;;8.50;99.90;;;;;;21057108;28;20036;-42
2023/06/16 03:31:55;;;;;;;9.95;8.02;;;8.70;99.90;;;;;;21055116;28;20536;-43
2023/06/16 03:41:57;;;;;;;8.45;7.10;;;8.70;99.90;;;;;;21053979;28;20043;-48
2023/06/16 03:51:59;;;;;;;11.43;7.95;;;9.00;99.90;;;;;;21054879;28;20032;-47
2023/06/16 04:02:07;;;;;;;10.40;8.35;;;9.00;99.90;;;;;;21052499;28;20040;-44
2023/06/16 04:12:11;;;;;;;9.00;7.25;;;9.10;99.90;;;;;;21051026;28;20073;-47
2023/06/16 04:22:13;;;;;;;9.65;7.47;;;9.20;99.90;;;;;;21051311;28;20086;-43
2023/06/16 04:32:36;;;;;;;13.70;9.68;;;9.40;99.90;;;;;;21064805;28;20475;-45
2023/06/16 04:42:41;;;;;;;11.80;9.63;;;9.40;99.90;;;;;;20983828;28;20066;-47
2023/06/16 04:52:47;;;;;;;14.25;9.07;;;9.60;99.90;;;;;;21003927;28;20106;-43
2023/06/16 05:02:50;;;;;;;10.98;9.18;;;9.70;99.90;;;;;;21002659;28;20106;-44
2023/06/16 05:12:52;;;;;;;10.27;8.25;;;9.70;99.90;;;;;;20984633;28;20044;-45
2023/06/16 05:22:53;;;;;;;10.85;7.60;;;9.90;99.90;;;;;;21008709;28;20105;-43
2023/06/16 05:32:55;;;;;;;12.57;8.07;;;10.10;99.90;;;;;;21016841;28;20112;-43
2023/06/16 05:43:00;;;;;;;10.07;8.50;;;10.20;99.90;;;;;;20891678;28;20081;-43
2023/06/16 05:53:04;;;;;;;8.63;7.40;;;10.50;99.90;;;;;;20901528;28;20072;-44
2023/06/16 06:03:06;;;;;;;8.82;6.78;;;10.90;99.90;;;;;;20907265;28;20072;-45
2023/06/16 06:13:12;;;;;;;6.57;4.53;;;11.40;99.90;;;;;;20991486;28;20066;-45
2023/06/16 06:23:16;;;;;;;4.70;3.63;;;14.80;99.90;;;;;;20991369;28;20024;-45
2023/06/16 06:33:18;;;;;;;5.72;4.20;;;18.60;99.90;;;;;;20974871;28;20078;-48
2023/06/16 06:43:20;;;;;;;4.82;3.17;;;20.50;99.90;;;;;;21034922;28;20040;-46
2023/06/16 06:53:31;;;;;;;7.32;3.47;;;22.10;99.90;;;;;;21041500;28;20043;-53
2023/06/16 07:03:32;;;;;;;4.22;3.63;;;23.20;99.90;;;;;;21075313;28;20054;-55
2023/06/16 07:13:34;;;;;;;3.45;3.15;;;24.70;99.80;;;;;;21076301;28;20054;-49
2023/06/16 07:23:36;;;;;;;4.10;3.70;;;26.20;96.50;;;;;;21074396;28;20050;-57
2023/06/16 07:33:38;;;;;;;3.95;3.42;;;26.60;93.60;;;;;;21069340;28;20044;-47
2023/06/16 07:43:39;;;;;;;4.18;3.88;;;27.50;95.20;;;;;;21070896;28;20044;-57
2023/06/16 07:53:42;;;;;;;4.38;3.97;;;27.80;91.30;;;;;;21072027;28;20035;-49
2023/06/16 08:03:46;;;;;;;3.65;3.30;;;26.90;91.20;;;;;;21051103;28;20431;-57
2023/06/16 08:13:48;;;;;;;4.78;4.15;;;25.50;92.40;;;;;;21064320;28;20028;-49
2023/06/16 08:23:52;;;;;;;4.05;3.58;;;24.30;95.40;;;;;;21069601;28;20070;-55
2023/06/16 08:33:54;;;;;;;4.68;4.20;;;23.80;95.30;;;;;;21068442;28;20028;-55
2023/06/16 08:43:58;;;;;;;6.13;4.93;;;22.50;96.90;;;;;;21065234;28;20044;-49
2023/06/16 08:54:03;;;;;;;6.55;4.82;;;21.50;98.00;;;;;;21067086;28;20024;-54
2023/06/16 09:04:08;;;;;;;4.68;3.65;;;22.60;97.50;;;;;;21042085;28;20544;-55
2023/06/16 09:14:14;;;;;;;5.38;4.70;;;22.60;98.40;;;;;;21065393;28;20032;-53
2023/06/16 09:24:16;;;;;;;6.93;5.47;;;21.70;99.90;;;;;;21060305;28;20546;-53
2023/06/16 09:34:19;;;;;;;6.88;6.13;;;21.90;99.90;;;;;;21064351;28;20093;-53
2023/06/16 09:44:26;;;;;;;6.53;5.70;;;21.50;99.90;;;;;;21063609;28;20035;-52
2023/06/16 09:54:28;;;;;;;7.67;6.50;;;21.10;99.90;;;;;;21041824;28;20054;-54
2023/06/16 10:04:31;;;;;;;8.18;7.38;;;19.70;99.90;;;;;;21046556;28;20035;-54
2023/06/16 10:14:35;;;;;;;7.20;6.50;;;19.00;99.90;;;;;;21090007;28;20088;-52
2023/06/16 10:24:39;;;;;;;8.02;7.13;;;18.60;99.90;;;;;;21089781;28;20028;-46
2023/06/16 10:34:47;;;;;;;8.32;7.18;;;18.60;99.90;;;;;;21089071;28;20409;-55
2023/06/16 10:44:50;;;;;;;4.50;4.10;;;20.20;99.90;;;;;;21089162;28;20115;-50
2023/06/16 10:54:52;;;;;;;5.03;4.13;;;22.70;99.90;;;;;;21088991;28;20028;-53
2023/06/16 11:05:10;;;;;;;3.70;3.40;;;22.80;99.90;;;;;;21069667;28;20036;-57
2023/06/16 11:15:13;;;;;;;4.25;3.38;;;23.20;97.20;;;;;;21083021;28;20025;-56
2023/06/16 11:25:14;;;;;;;4.30;3.70;;;24.70;97.00;;;;;;21073942;28;20554;-52
2023/06/16 11:35:17;;;;;;;4.53;4.10;;;22.80;97.80;;;;;;21053095;28;20109;-55
2023/06/16 11:45:19;;;;;;;6.22;4.43;;;23.80;99.70;;;;;;21069181;28;20097;-57
2023/06/16 11:55:21;;;;;;;6.70;5.70;;;25.00;98.60;;;;;;21071772;28;20536;-55
2023/06/16 12:05:26;;;;;;;7.35;6.43;;;23.70;98.80;;;;;;21067697;28;20366;-48
2023/06/16 12:15:27;;;;;;;8.02;6.63;;;22.40;99.90;;;;;;21066183;28;20032;-48
2023/06/16 12:25:29;;;;;;;8.52;7.60;;;22.00;99.60;;;;;;21044487;28;20093;-49
2023/06/16 12:35:30;;;;;;;11.20;10.00;;;20.30;99.90;;;;;;21064015;28;20406;-53
2023/06/16 12:45:32;;;;;;;9.63;8.50;;;19.20;99.90;;;;;;21058827;28;20035;-53
2023/06/16 12:55:34;;;;;;;13.27;10.70;;;19.30;99.90;;;;;;21063153;28;20410;-54
2023/06/16 13:05:35;;;;;;;12.40;11.13;;;20.90;99.90;;;;;;21058939;28;20028;-47
2023/06/16 13:15:37;;;;;;;9.68;8.65;;;23.10;99.90;;;;;;21047166;28;20024;-56
2023/06/16 13:25:39;;;;;;;9.77;8.77;;;23.40;99.90;;;;;;21046594;28;20023;-56
2023/06/16 13:35:40;;;;;;;9.55;8.52;;;25.20;98.50;;;;;;21064381;28;20082;-49
2023/06/16 13:45:42;;;;;;;10.52;9.38;;;24.40;97.50;;;;;;21063580;28;20040;-52
2023/06/16 13:55:44;;;;;;;11.80;8.38;;;23.00;99.90;;;;;;21062923;28;20535;-54
2023/06/16 14:05:46;;;;;;;9.95;8.70;;;22.70;99.00;;;;;;21057559;28;20044;-52
2023/06/16 14:15:50;;;;;;;10.30;9.30;;;21.70;99.40;;;;;;21059241;28;20027;-50
2023/06/16 14:25:52;;;;;;;10.65;7.20;;;20.80;99.90;;;;;;21055322;28;20040;-53
2023/06/16 14:35:54;;;;;;;9.20;7.63;;;20.40;99.90;;;;;;21037906;28;20043;-52
2023/06/16 14:45:56;;;;;;;11.68;9.13;;;21.90;97.90;;;;;;21038792;28;20032;-51
2023/06/16 14:55:58;;;;;;;7.57;6.05;;;22.00;96.40;;;;;;21052992;28;20032;-55
2023/06/16 15:05:59;;;;;;;8.45;6.10;;;22.40;99.90;;;;;;21071211;28;20032;-55
2023/06/16 15:16:01;;;;;;;6.05;5.22;;;24.50;97.70;;;;;;21056444;28;20032;-51
2023/06/16 15:26:03;;;;;;;7.40;5.40;;;24.00;95.90;;;;;;21055649;28;20427;-51
2023/06/16 15:36:06;;;;;;;4.85;4.30;;;24.30;95.30;;;;;;21073848;28;20109;-52
2023/06/16 15:46:08;;;;;;;7.43;4.60;;;25.20;92.90;;;;;;21072628;28;20039;-54
2023/06/16 15:56:10;;;;;;;8.13;5.55;;;25.10;91.20;;;;;;21066905;28;20032;-54
2023/06/16 16:06:12;;;;;;;6.55;5.85;;;24.30;90.10;;;;;;21068427;28;20032;-53
2023/06/16 16:16:13;;;;;;;8.70;7.43;;;21.80;94.70;;;;;;21070159;28;20044;-52
2023/06/16 16:26:15;;;;;;;13.07;10.00;;;21.00;96.30;;;;;;21050932;28;20039;-52
2023/06/16 16:36:18;;;;;;;14.18;11.52;;;20.10;94.30;;;;;;21069375;28;20056;-51
2023/06/16 16:46:20;;;;;;;14.40;10.75;;;19.00;95.20;;;;;;21067447;28;20039;-52
2023/06/16 16:56:22;;;;;;;12.90;9.32;;;18.10;98.00;;;;;;21066767;28;20024;-52
2023/06/16 17:06:23;;;;;;;13.10;11.70;;;17.60;99.60;;;;;;21081739;28;20032;-48
2023/06/16 17:16:25;;;;;;;16.13;12.75;;;17.00;99.90;;;;;;21062725;28;20044;-48
2023/06/16 17:26:27;;;;;;;17.50;15.43;;;17.00;99.90;;;;;;21060821;28;20457;-52
2023/06/16 17:36:29;;;;;;;21.58;17.10;;;17.00;99.90;;;;;;21062282;28;20116;-50
2023/06/16 17:46:36;;;;;;;21.25;18.25;;;16.50;99.90;;;;;;21063575;28;20036;-49
2023/06/16 17:56:38;;;;;;;15.70;11.40;;;16.20;99.90;;;;;;21063010;28;20389;-50
2023/06/16 18:06:40;;;;;;;12.50;9.65;;;16.00;99.90;;;;;;21062781;28;20389;-52
2023/06/16 18:16:41;;;;;;;14.70;10.55;;;15.80;99.90;;;;;;21062045;28;20047;-49
2023/06/16 18:26:43;;;;;;;13.15;11.48;;;15.70;99.90;;;;;;21065856;28;20040;-47
2023/06/16 18:36:45;;;;;;;14.55;11.40;;;15.60;99.90;;;;;;21076389;28;20492;-50
2023/06/16 18:46:47;;;;;;;12.40;10.80;;;15.40;99.90;;;;;;21076959;28;20062;-50
2023/06/16 18:56:48;;;;;;;10.48;9.35;;;15.00;99.90;;;;;;21076937;28;20070;-49
2023/06/16 19:06:50;;;;;;;8.25;6.70;;;14.30;99.90;;;;;;21073578;28;20572;-51
2023/06/16 19:16:51;;;;;;;11.32;6.95;;;13.50;99.90;;;;;;21074677;28;20032;-51
2023/06/16 19:26:53;;;;;;;12.73;8.82;;;12.80;99.90;;;;;;21073842;28;20469;-49
2023/06/16 19:36:55;;;;;;;9.30;4.53;;;12.50;99.90;;;;;;21070005;28;20040;-51
2023/06/16 19:46:56;;;;;;;7.57;4.85;;;12.40;99.90;;;;;;21054011;28;20109;-46
2023/06/16 19:56:58;;;;;;;7.50;4.95;;;12.20;99.90;;;;;;21071762;28;20461;-48
2023/06/16 20:07:01;;;;;;;6.90;4.32;;;11.90;99.90;;;;;;21053067;28;20028;-48
2023/06/16 20:17:02;;;;;;;7.18;4.90;;;11.60;99.90;;;;;;21070270;28;20366;-47
2023/06/16 20:27:04;;;;;;;5.53;3.70;;;11.50;99.90;;;;;;21069312;28;20062;-50
2023/06/16 20:37:07;;;;;;;6.75;3.60;;;11.40;99.90;;;;;;21068362;28;20085;-47
2023/06/16 20:47:09;;;;;;;7.30;3.35;;;11.40;99.90;;;;;;21064375;28;20385;-48
2023/06/16 20:57:10;;;;;;;4.78;3.50;;;11.70;99.90;;;;;;21048381;28;20093;-48
2023/06/16 21:07:13;;;;;;;7.00;4.30;;;12.00;99.90;;;;;;21065965;28;20040;-50
2023/06/16 21:17:15;;;;;;;5.45;3.58;;;11.90;99.90;;;;;;21065414;28;20032;-50
2023/06/16 21:27:16;;;;;;;4.60;2.80;;;11.60;99.90;;;;;;21064643;28;20032;-46
2023/06/16 21:37:20;;;;;;;9.77;4.45;;;11.60;99.90;;;;;;21064171;28;20097;-48
2023/06/16 21:47:22;;;;;;;4.57;3.30;;;11.60;99.80;;;;;;21063305;28;20036;-48
2023/06/16 21:57:24;;;;;;;5.45;3.20;;;11.80;99.10;;;;;;21062416;28;20036;-46
2023/06/16 22:07:29;;;;;;;7.43;3.55;;;11.80;98.80;;;;;;21062796;28;20472;-47
2023/06/16 22:17:33;;;;;;;4.80;3.35;;;11.90;98.60;;;;;;21061822;28;20043;-48
2023/06/16 22:27:35;;;;;;;5.03;3.47;;;12.30;97.30;;;;;;21061453;28;20058;-49
2023/06/16 22:37:36;;;;;;;4.28;2.95;;;12.30;97.50;;;;;;21060886;28;20043;-50
2023/06/16 22:47:41;;;;;;;6.22;3.53;;;12.20;97.10;;;;;;21060579;28;20090;-48
2023/06/16 22:57:43;;;;;;;5.78;3.03;;;12.20;98.50;;;;;;21042251;28;20129;-49
2023/06/16 23:07:45;;;;;;;4.80;3.10;;;11.90;98.20;;;;;;21059756;28;20036;-47
2023/06/16 23:17:46;;;;;;;5.10;2.72;;;11.60;98.50;;;;;;21071097;28;20040;-45
2023/06/16 23:27:54;;;;;;;5.25;2.90;;;11.40;98.60;;;;;;21075333;28;20473;-48
2023/06/16 23:37:56;;;;;;;3.90;2.80;;;11.20;99.00;;;;;;21070744;28;20105;-48
2023/06/16 23:47:58;;;;;;;6.70;3.20;;;11.10;99.50;;;;;;21072386;28;20550;-44
2023/06/16 23:58:00;;;;;;;5.00;3.17;;;11.10;99.40;;;;;;21071760;28;20078;-49
